Time;durP1;ratioP1;P1;durP2;ratioP2;P2;SDS_P1;SDS_P2;PMS_P1;PMS_P2;Temp;Humidity;BMP_temperature;BMP_pressure;BME280_temperature;BME280_humidity;BME280_pressure;Samples;Min_cycle;Max_cycle;Signal;HPM_P1;HPM_P2
2022/08/30 00:01:10;;;;;;;;;;;;;;;18.33;49.21;101427.50;5061458;28;19921;-77
2022/08/30 00:03:41;;;;;;;;;;;;;;;18.31;49.02;101418.81;5059066;28;19932;-77
2022/08/30 00:06:08;;;;;;;;;;;;;;;18.37;49.21;101421.19;5063824;28;19924;-77
2022/08/30 00:08:34;;;;;;;;;;;;;;;18.30;48.99;101425.00;5067967;28;19920;-77
2022/08/30 00:11:00;;;;;;;;;;;;;;;18.25;49.19;101425.19;5064575;28;20412;-77
2022/08/30 00:13:26;;;;;;;;;;;;;;;18.22;48.79;101429.72;5068683;28;19927;-77
2022/08/30 00:15:52;;;;;;;;;;;;;;;18.23;48.99;101424.41;5060222;28;19928;-77
2022/08/30 00:18:17;;;;;;;;;;;;;;;18.21;49.05;101430.66;5067082;28;20369;-77
2022/08/30 00:20:44;;;;;;;;;;;;;;;18.22;48.94;101429.72;5061016;28;20305;-77
2022/08/30 00:23:10;;;;;;;;;;;;;;;18.23;49.00;101436.69;5065247;28;19934;-77
2022/08/30 00:25:35;;;;;;;;;;;;;;;18.16;49.96;101434.31;5064920;28;19920;-77
2022/08/30 00:28:01;;;;;;;;;;;;;;;18.15;49.96;101432.59;5067410;28;19924;-77
2022/08/30 00:30:26;;;;;;;;;;;;;;;18.11;49.72;101438.06;5068743;28;19924;-77
2022/08/30 00:32:54;;;;;;;;;;;;;;;18.11;49.98;101443.31;5060517;28;20392;-77
2022/08/30 00:35:20;;;;;;;;;;;;;;;18.12;49.27;101443.25;5067043;28;19923;-77
2022/08/30 00:37:45;;;;;;;;;;;;;;;18.07;49.16;101439.09;5066964;28;19928;-77
2022/08/30 00:40:14;;;;;;;;;;;;;;;18.06;49.90;101443.53;5063887;28;19928;-77
2022/08/30 00:42:40;;;;;;;;;;;;;;;18.06;49.52;101445.31;5064289;28;19927;-77
2022/08/30 00:45:14;;;;;;;;;;;;;;;18.06;49.95;101448.78;5058027;28;20379;-77
2022/08/30 00:47:39;;;;;;;;;;;;;;;18.03;50.69;101455.94;5059579;28;19924;-76
2022/08/30 00:50:07;;;;;;;;;;;;;;;18.01;50.92;101463.00;5063701;28;20019;-77
2022/08/30 00:52:33;;;;;;;;;;;;;;;17.98;50.94;101456.13;5064400;28;19924;-77
2022/08/30 00:55:00;;;;;;;;;;;;;;;17.99;50.97;101455.19;5063404;28;19943;-77
2022/08/30 00:57:27;;;;;;;;;;;;;;;18.03;50.34;101456.81;5064794;28;19924;-77
2022/08/30 00:59:53;;;;;;;;;;;;;;;18.07;49.87;101454.88;5066434;28;19929;-77
2022/08/30 01:02:20;;;;;;;;;;;;;;;18.06;50.80;101459.31;5063633;28;19924;-77
2022/08/30 01:04:46;;;;;;;;;;;;;;;18.08;50.07;101454.81;5061715;28;20373;-77
2022/08/30 01:07:11;;;;;;;;;;;;;;;18.07;49.95;101463.63;5065815;28;19977;-77
2022/08/30 01:09:37;;;;;;;;;;;;;;;18.06;50.22;101461.94;5066280;28;20020;-77
2022/08/30 01:12:03;;;;;;;;;;;;;;;18.10;50.84;101462.63;5069385;28;19924;-77
2022/08/30 01:14:31;;;;;;;;;;;;;;;18.05;51.64;101464.59;5067443;28;20415;-77
2022/08/30 01:16:56;;;;;;;;;;;;;;;18.05;51.15;101456.72;5062027;28;19932;-76
2022/08/30 01:19:40;;;;;;;;;;;;;;;17.95;51.10;101456.25;5062022;28;19924;-77
2022/08/30 01:22:17;;;;;;;;;;;;;;;17.96;50.02;101459.72;5069256;28;20019;-77
2022/08/30 01:24:46;;;;;;;;;;;;;;;17.96;50.31;101459.72;5067208;28;19981;-77
2022/08/30 01:27:13;;;;;;;;;;;;;;;17.94;50.48;101465.06;5069592;28;19924;-77
2022/08/30 01:29:38;;;;;;;;;;;;;;;17.95;50.45;101461.50;5069635;28;20007;-77
2022/08/30 01:32:04;;;;;;;;;;;;;;;17.96;50.09;101462.34;5069427;28;20369;-77
2022/08/30 01:34:30;;;;;;;;;;;;;;;17.95;50.43;101464.13;5068525;28;19920;-77
2022/08/30 01:36:55;;;;;;;;;;;;;;;17.89;49.86;101469.63;5071399;28;19989;-77
2022/08/30 01:39:20;;;;;;;;;;;;;;;17.87;50.56;101470.59;5067198;28;20011;-77
2022/08/30 01:41:45;;;;;;;;;;;;;;;17.87;51.19;101466.22;5073472;28;19916;-76
2022/08/30 01:44:12;;;;;;;;;;;;;;;17.85;50.67;101461.94;5073347;28;19956;-77
2022/08/30 01:46:39;;;;;;;;;;;;;;;17.88;50.30;101462.69;5069130;28;20007;-77
2022/08/30 01:49:06;;;;;;;;;;;;;;;17.85;50.35;101464.56;5068851;28;20018;-77
2022/08/30 01:51:31;;;;;;;;;;;;;;;17.84;50.17;101463.72;5069672;28;19924;-77
2022/08/30 01:53:57;;;;;;;;;;;;;;;17.88;50.02;101465.31;5071977;28;19927;-76
2022/08/30 01:56:23;;;;;;;;;;;;;;;17.86;51.02;101464.50;5073308;28;19932;-76
2022/08/30 01:58:49;;;;;;;;;;;;;;;17.85;51.36;101464.56;5068553;28;19969;-77
2022/08/30 02:01:18;;;;;;;;;;;;;;;17.81;51.43;101466.47;5068967;28;20003;-77
2022/08/30 02:03:44;;;;;;;;;;;;;;;17.81;51.25;101462.97;5060851;28;19929;-77
2022/08/30 02:06:10;;;;;;;;;;;;;;;17.83;51.35;101469.88;5069674;28;19927;-77
2022/08/30 02:08:37;;;;;;;;;;;;;;;17.83;51.53;101469.88;5070279;28;20560;-77
2022/08/30 02:11:03;;;;;;;;;;;;;;;17.81;51.27;101468.22;5072852;28;19924;-77
2022/08/30 02:13:29;;;;;;;;;;;;;;;17.77;51.76;101464.84;5069527;28;19920;-77
2022/08/30 02:15:55;;;;;;;;;;;;;;;17.80;51.39;101466.53;5061241;28;19946;-77
2022/08/30 02:18:21;;;;;;;;;;;;;;;17.79;51.25;101465.66;5063930;28;19932;-76
2022/08/30 02:20:46;;;;;;;;;;;;;;;17.83;51.33;101471.66;5064773;28;20310;-76
2022/08/30 02:23:11;;;;;;;;;;;;;;;17.74;51.35;101472.84;5068287;28;20053;-77
2022/08/30 02:25:36;;;;;;;;;;;;;;;17.71;50.81;101469.53;5066302;28;20344;-76
2022/08/30 02:28:02;;;;;;;;;;;;;;;17.71;51.11;101474.78;5068614;28;19927;-77
2022/08/30 02:30:28;;;;;;;;;;;;;;;17.65;52.03;101467.97;5068047;28;20101;-77
2022/08/30 02:32:53;;;;;;;;;;;;;;;17.73;51.50;101470.31;5065263;28;19924;-77
2022/08/30 02:35:18;;;;;;;;;;;;;;;17.70;51.24;101470.44;5065748;28;20019;-77
2022/08/30 02:37:43;;;;;;;;;;;;;;;17.67;51.35;101470.53;5069900;28;19928;-77
2022/08/30 02:40:09;;;;;;;;;;;;;;;17.69;51.47;101466.06;5066755;28;19966;-77
2022/08/30 02:42:34;;;;;;;;;;;;;;;17.69;50.98;101466.06;5067809;28;19970;-76
2022/08/30 02:45:00;;;;;;;;;;;;;;;17.69;51.21;101458.19;5069814;28;19931;-77
2022/08/30 02:47:25;;;;;;;;;;;;;;;17.64;51.03;101454.91;5066212;28;20297;-77
2022/08/30 02:49:50;;;;;;;;;;;;;;;17.60;51.92;101449.75;5067660;28;19924;-76
2022/08/30 02:52:16;;;;;;;;;;;;;;;17.65;51.84;101441.69;5066045;28;19920;-77
2022/08/30 02:54:41;;;;;;;;;;;;;;;17.66;51.82;101443.41;5068188;28;19960;-77
2022/08/30 02:57:07;;;;;;;;;;;;;;;17.64;51.87;101433.88;5066783;28;19935;-77
2022/08/30 02:59:34;;;;;;;;;;;;;;;17.66;51.76;101439.91;5068267;28;20455;-77
2022/08/30 03:01:59;;;;;;;;;;;;;;;17.59;51.94;101436.66;5068126;28;19920;-77
2022/08/30 03:04:25;;;;;;;;;;;;;;;17.60;51.60;101428.75;5066092;28;19924;-77
2022/08/30 03:06:50;;;;;;;;;;;;;;;17.57;51.40;101431.47;5065648;28;19975;-77
2022/08/30 03:09:15;;;;;;;;;;;;;;;17.64;51.84;101432.13;5073363;28;20388;-77
2022/08/30 03:11:41;;;;;;;;;;;;;;;17.63;51.85;101438.28;5069543;28;19925;-77
2022/08/30 03:14:07;;;;;;;;;;;;;;;17.64;51.62;101439.13;5068962;28;20440;-77
2022/08/30 03:16:32;;;;;;;;;;;;;;;17.65;51.71;101440.84;5064373;28;19928;-77
2022/08/30 03:18:57;;;;;;;;;;;;;;;17.58;50.71;101450.72;5066486;28;19927;-77
2022/08/30 03:21:23;;;;;;;;;;;;;;;17.61;51.94;101445.38;5066698;28;19927;-77
2022/08/30 03:23:48;;;;;;;;;;;;;;;17.57;51.76;101446.38;5068424;28;20086;-77
2022/08/30 03:26:13;;;;;;;;;;;;;;;17.52;51.68;101451.81;5063778;28;19924;-77
2022/08/30 03:28:39;;;;;;;;;;;;;;;17.52;51.95;101454.44;5069747;28;19944;-76
2022/08/30 03:31:05;;;;;;;;;;;;;;;17.50;51.76;101456.25;5066231;28;20001;-77
2022/08/30 03:33:30;;;;;;;;;;;;;;;17.48;52.00;101450.22;5057179;28;20453;-77
2022/08/30 03:35:55;;;;;;;;;;;;;;;17.47;52.35;101450.28;5070731;28;19925;-77
2022/08/30 03:38:21;;;;;;;;;;;;;;;17.49;52.28;101454.56;5066591;28;19924;-77
2022/08/30 03:40:47;;;;;;;;;;;;;;;17.53;52.35;101450.03;5066869;28;19925;-77
2022/08/30 03:43:12;;;;;;;;;;;;;;;17.49;52.12;101448.44;5067948;28;20282;-77
2022/08/30 03:45:38;;;;;;;;;;;;;;;17.50;51.52;101445.75;5065653;28;20381;-77
2022/08/30 03:48:03;;;;;;;;;;;;;;;17.50;51.65;101450.16;5066476;28;20027;-77
2022/08/30 03:50:29;;;;;;;;;;;;;;;17.48;51.66;101437.06;5067038;28;19923;-77
2022/08/30 03:52:55;;;;;;;;;;;;;;;17.50;51.84;101442.28;5067341;28;19924;-77
2022/08/30 03:55:20;;;;;;;;;;;;;;;17.42;52.00;101439.94;5063049;28;20458;-77
2022/08/30 03:57:45;;;;;;;;;;;;;;;17.37;52.31;101449.78;5061036;28;20025;-77
2022/08/30 04:00:12;;;;;;;;;;;;;;;17.40;51.83;101444.41;5066250;28;19927;-77
2022/08/30 04:02:38;;;;;;;;;;;;;;;17.28;51.97;101450.13;5062812;28;19928;-77
2022/08/30 04:05:03;;;;;;;;;;;;;;;17.31;52.67;101450.00;5062778;28;20480;-77
2022/08/30 04:07:28;;;;;;;;;;;;;;;17.33;52.57;101453.41;5069465;28;19923;-77
2022/08/30 04:09:54;;;;;;;;;;;;;;;17.23;52.64;101448.59;5067534;28;19966;-77
2022/08/30 04:12:19;;;;;;;;;;;;;;;17.24;53.08;101452.91;5067041;28;19974;-77
2022/08/30 04:14:44;;;;;;;;;;;;;;;17.26;52.66;101444.09;5064693;28;20312;-77
2022/08/30 04:17:10;;;;;;;;;;;;;;;17.28;52.94;101441.38;5063573;28;19929;-77
2022/08/30 04:19:35;;;;;;;;;;;;;;;17.27;53.15;101447.53;5068550;28;19928;-76
2022/08/30 04:22:00;;;;;;;;;;;;;;;17.27;52.77;101452.78;5067867;28;19924;-77
2022/08/30 04:24:26;;;;;;;;;;;;;;;17.22;52.56;101450.34;5065701;28;19920;-77
2022/08/30 04:26:51;;;;;;;;;;;;;;;17.22;52.95;101458.22;5063660;28;20021;-77
2022/08/30 04:29:16;;;;;;;;;;;;;;;17.16;52.78;101452.34;5063509;28;19931;-77
2022/08/30 04:31:42;;;;;;;;;;;;;;;17.22;52.79;101449.50;5070160;28;19928;-77
2022/08/30 04:34:09;;;;;;;;;;;;;;;17.18;52.34;101459.25;5068251;28;19928;-77
2022/08/30 04:36:34;;;;;;;;;;;;;;;17.21;53.09;101461.75;5064522;28;19924;-77
2022/08/30 04:38:59;;;;;;;;;;;;;;;17.17;52.99;101457.56;5066742;28;20396;-77
2022/08/30 04:41:24;;;;;;;;;;;;;;;17.17;52.96;101461.94;5068962;28;19920;-76
2022/08/30 04:43:50;;;;;;;;;;;;;;;17.17;52.83;101468.06;5067161;28;19966;-77
2022/08/30 04:46:15;;;;;;;;;;;;;;;17.17;52.74;101462.81;5067677;28;20011;-77
2022/08/30 04:48:40;;;;;;;;;;;;;;;17.16;52.81;101466.34;5064309;28;19932;-77
2022/08/30 04:51:07;;;;;;;;;;;;;;;17.16;53.10;101468.97;5063172;28;20360;-77
2022/08/30 04:53:33;;;;;;;;;;;;;;;17.12;53.07;101471.75;5068187;28;19927;-77
2022/08/30 04:55:59;;;;;;;;;;;;;;;17.15;52.91;101469.84;5064502;28;19928;-77
2022/08/30 04:58:24;;;;;;;;;;;;;;;17.13;52.83;101471.69;5067691;28;19984;-77
2022/08/30 05:00:49;;;;;;;;;;;;;;;17.11;53.24;101477.91;5070750;28;19920;-77
2022/08/30 05:03:16;;;;;;;;;;;;;;;17.08;53.11;101483.28;5068529;28;20550;-77
2022/08/30 05:05:45;;;;;;;;;;;;;;;17.10;53.32;101473.56;5068102;28;19923;-77
2022/08/30 05:08:12;;;;;;;;;;;;;;;17.12;53.23;101487.50;5070997;28;19924;-77
2022/08/30 05:10:39;;;;;;;;;;;;;;;17.18;53.34;101485.50;5068239;28;19924;-77
2022/08/30 05:13:04;;;;;;;;;;;;;;;17.18;53.03;101480.25;5064537;28;19924;-77
2022/08/30 05:15:30;;;;;;;;;;;;;;;17.19;52.93;101475.84;5067641;28;19935;-77
2022/08/30 05:17:55;;;;;;;;;;;;;;;17.22;52.25;101478.38;5070057;28;20024;-76
2022/08/30 05:20:20;;;;;;;;;;;;;;;17.20;53.13;101477.59;5052498;28;20217;-77
2022/08/30 05:22:51;;;;;;;;;;;;;;;17.19;53.02;101481.97;5071581;28;19920;-77
2022/08/30 05:25:28;;;;;;;;;;;;;;;17.21;53.32;101487.16;5069510;28;19927;-77
2022/08/30 05:27:53;;;;;;;;;;;;;;;17.16;53.38;101489.09;5067719;28;19921;-77
2022/08/30 05:30:19;;;;;;;;;;;;;;;17.08;53.44;101487.59;5070314;28;19970;-77
2022/08/30 05:32:45;;;;;;;;;;;;;;;17.20;53.79;101493.34;5070464;28;19978;-77
2022/08/30 05:35:11;;;;;;;;;;;;;;;17.23;53.17;101490.59;5070471;28;19924;-77
2022/08/30 05:37:36;;;;;;;;;;;;;;;17.23;53.98;101496.72;5068966;28;19947;-77
2022/08/30 05:40:03;;;;;;;;;;;;;;;17.26;53.79;101499.22;5069761;28;20320;-77
2022/08/30 05:42:29;;;;;;;;;;;;;;;17.24;54.28;101494.91;5061459;28;19998;-77
2022/08/30 05:44:54;;;;;;;;;;;;;;;17.24;54.36;101500.16;5075928;28;20019;-77
2022/08/30 05:47:20;;;;;;;;;;;;;;;17.23;53.99;101501.09;5062341;28;20389;-77
2022/08/30 05:49:46;;;;;;;;;;;;;;;17.29;54.14;101508.75;5065161;28;20035;-77
2022/08/30 05:52:14;;;;;;;;;;;;;;;17.23;54.34;101507.22;5061822;28;19971;-77
2022/08/30 05:54:39;;;;;;;;;;;;;;;17.23;54.54;101508.97;5065566;28;19955;-77
2022/08/30 05:57:04;;;;;;;;;;;;;;;17.22;53.42;101502.00;5065580;28;19959;-77
2022/08/30 05:59:30;;;;;;;;;;;;;;;17.26;54.08;101501.00;5063446;28;20530;-77
2022/08/30 06:01:56;;;;;;;;;;;;;;;17.29;54.53;101501.75;5062995;28;19920;-77
2022/08/30 06:04:22;;;;;;;;;;;;;;;17.29;54.44;101493.00;5069986;28;20408;-77
2022/08/30 06:06:47;;;;;;;;;;;;;;;17.28;54.36;101496.53;5068212;28;19940;-77
2022/08/30 06:09:13;;;;;;;;;;;;;;;17.28;54.10;101494.75;5066731;28;19928;-77
2022/08/30 06:11:38;;;;;;;;;;;;;;;17.29;54.17;101496.50;5067091;28;19912;-77
2022/08/30 06:14:04;;;;;;;;;;;;;;;17.31;54.49;101492.03;5069256;28;19923;-77
2022/08/30 06:16:30;;;;;;;;;;;;;;;17.31;54.52;101485.91;5062814;28;20015;-77
2022/08/30 06:18:56;;;;;;;;;;;;;;;17.36;54.79;101489.22;5067959;28;20027;-77
2022/08/30 06:21:27;;;;;;;;;;;;;;;17.35;54.31;101492.78;5068794;28;19925;-77
2022/08/30 06:23:53;;;;;;;;;;;;;;;17.35;54.08;101488.34;5069949;28;19935;-77
2022/08/30 06:26:19;;;;;;;;;;;;;;;17.35;54.39;101488.34;5062080;28;19920;-77
2022/08/30 06:28:44;;;;;;;;;;;;;;;17.35;54.54;101483.09;5069088;28;20389;-77
2022/08/30 06:31:11;;;;;;;;;;;;;;;17.43;54.10;101488.06;5068480;28;19923;-77
2022/08/30 06:33:36;;;;;;;;;;;;;;;17.41;54.01;101489.91;5062753;28;19927;-77
2022/08/30 06:36:06;;;;;;;;;;;;;;;17.38;54.28;101482.16;5069960;28;20321;-78
2022/08/30 06:38:32;;;;;;;;;;;;;;;17.39;54.35;101484.69;5061854;28;20498;-77
2022/08/30 06:40:57;;;;;;;;;;;;;;;17.47;54.15;101487.06;5070560;28;20006;-77
2022/08/30 06:43:23;;;;;;;;;;;;;;;17.52;54.14;101488.59;5070107;28;20304;-79
2022/08/30 06:45:48;;;;;;;;;;;;;;;17.51;54.12;101488.63;5060903;28;19920;-79
2022/08/30 06:48:14;;;;;;;;;;;;;;;17.48;54.37;101500.13;5061937;28;19955;-80
2022/08/30 06:50:40;;;;;;;;;;;;;;;17.52;53.83;101488.59;5064817;28;20373;-79
2022/08/30 06:53:06;;;;;;;;;;;;;;;17.53;53.83;101492.09;5065251;28;19928;-80
2022/08/30 06:55:34;;;;;;;;;;;;;;;17.54;54.17;101486.75;5066266;28;19955;-79
2022/08/30 06:58:00;;;;;;;;;;;;;;;17.56;53.59;101492.78;5062721;28;19935;-79
2022/08/30 07:00:26;;;;;;;;;;;;;;;17.59;53.52;101491.84;5065403;28;19994;-79
2022/08/30 07:02:51;;;;;;;;;;;;;;;17.63;53.89;101487.34;5064387;28;20571;-79
2022/08/30 07:05:20;;;;;;;;;;;;;;;17.65;54.18;101493.41;5065456;28;19921;-79
2022/08/30 07:07:46;;;;;;;;;;;;;;;17.68;54.27;101498.53;5065913;28;19925;-79
2022/08/30 07:10:13;;;;;;;;;;;;;;;17.75;54.89;101497.38;5063332;28;19970;-79
2022/08/30 07:12:38;;;;;;;;;;;;;;;17.70;54.72;101501.97;5067549;28;20381;-79
2022/08/30 07:15:04;;;;;;;;;;;;;;;17.71;54.85;101503.69;5065047;28;19931;-79
2022/08/30 07:20:13;;;;;;;;;;;;;;;17.67;53.88;101500.31;5041985;28;19970;-79
2022/08/30 07:22:38;;;;;;;;;;;;;;;17.70;54.09;101501.97;5058995;28;19952;-79
2022/08/30 07:25:04;;;;;;;;;;;;;;;17.79;54.56;101502.47;5064031;28;19931;-79
2022/08/30 07:27:29;;;;;;;;;;;;;;;17.82;53.93;101507.59;5064303;28;19927;-79
2022/08/30 07:29:57;;;;;;;;;;;;;;;17.91;54.12;101514.25;5064020;28;19926;-78
2022/08/30 07:32:22;;;;;;;;;;;;;;;17.93;53.69;101517.69;5065316;28;19928;-79
2022/08/30 07:34:47;;;;;;;;;;;;;;;18.00;53.84;101516.53;5061761;28;20011;-78
2022/08/30 07:37:13;;;;;;;;;;;;;;;18.07;53.98;101508.31;5068724;28;20279;-79
2022/08/30 07:39:38;;;;;;;;;;;;;;;18.14;54.22;101515.06;5062878;28;19927;-79
2022/08/30 07:42:03;;;;;;;;;;;;;;;18.21;56.85;101520.06;5065717;28;19925;-79
2022/08/30 07:44:29;;;;;;;;;;;;;;;18.22;54.07;101514.72;5064960;28;19917;-79
2022/08/30 07:46:55;;;;;;;;;;;;;;;18.27;55.63;101517.19;5064837;28;19982;-79
2022/08/30 07:49:20;;;;;;;;;;;;;;;18.25;54.36;101516.38;5058906;28;19920;-79
2022/08/30 07:51:45;;;;;;;;;;;;;;;18.27;53.98;101517.19;5061302;28;19921;-79
2022/08/30 07:54:11;;;;;;;;;;;;;;;18.26;53.57;101513.69;5068612;28;19924;-79
2022/08/30 07:56:39;;;;;;;;;;;;;;;18.31;54.24;101516.13;5065300;28;19927;-79
2022/08/30 07:59:06;;;;;;;;;;;;;;;18.38;57.06;101520.22;5065889;28;20223;-79
2022/08/30 08:01:31;;;;;;;;;;;;;;;18.37;55.14;101507.97;5066599;28;19929;-79
2022/08/30 08:03:57;;;;;;;;;;;;;;;18.39;56.14;101503.53;5064018;28;20551;-79
2022/08/30 08:06:22;;;;;;;;;;;;;;;18.36;54.07;101496.59;5067710;28;19932;-79
2022/08/30 08:08:48;;;;;;;;;;;;;;;18.42;54.42;101506.03;5067807;28;20020;-79
2022/08/30 08:11:18;;;;;;;;;;;;;;;18.45;55.87;101508.53;5065720;28;20450;-79
2022/08/30 08:13:45;;;;;;;;;;;;;;;18.47;53.16;101512.84;5073067;28;19927;-79
2022/08/30 08:16:10;;;;;;;;;;;;;;;18.50;52.95;101501.34;5065405;28;19986;-79
2022/08/30 08:18:35;;;;;;;;;;;;;;;18.51;53.15;101500.44;5064296;28;19924;-79
2022/08/30 08:21:01;;;;;;;;;;;;;;;18.53;53.20;101509.97;5061329;28;19921;-79
2022/08/30 08:23:27;;;;;;;;;;;;;;;18.54;55.46;101508.19;5066652;28;20506;-79
2022/08/30 08:25:52;;;;;;;;;;;;;;;18.57;53.29;101505.44;5064086;28;19928;-79
2022/08/30 08:28:18;;;;;;;;;;;;;;;18.60;53.11;101498.25;5064223;28;19921;-79
2022/08/30 08:30:43;;;;;;;;;;;;;;;18.60;54.37;101500.88;5066560;28;19970;-79
2022/08/30 08:33:09;;;;;;;;;;;;;;;18.61;56.81;101496.47;5060642;28;19933;-79
2022/08/30 08:35:34;;;;;;;;;;;;;;;18.63;54.08;101499.88;5065139;28;19929;-79
2022/08/30 08:38:00;;;;;;;;;;;;;;;18.64;56.86;101501.59;5067323;28;19925;-79
2022/08/30 08:40:26;;;;;;;;;;;;;;;18.64;53.48;101493.69;5065331;28;20318;-79
2022/08/30 08:43:04;;;;;;;;;;;;;;;18.67;53.93;101498.84;5067942;28;20579;-79
2022/08/30 08:45:38;;;;;;;;;;;;;;;18.69;52.98;101495.22;5063120;28;19939;-79
2022/08/30 08:48:13;;;;;;;;;;;;;;;18.69;52.70;101496.97;5059025;28;20003;-79
2022/08/30 08:53:33;;;;;;;;;;;;;;;18.68;52.47;101495.28;5065746;28;19970;-79
2022/08/30 08:53:34;;;;;;;;;;;;;;;18.68;52.38;101497.94;5062640;28;19960;-79
2022/08/30 08:56:00;;;;;;;;;;;;;;;18.67;53.48;101493.56;5067130;28;19999;-80
2022/08/30 08:58:30;;;;;;;;;;;;;;;18.68;53.06;101498.78;5066133;28;19927;-79
2022/08/30 09:00:56;;;;;;;;;;;;;;;18.73;52.54;101493.31;5067025;28;19940;-79
2022/08/30 09:03:23;;;;;;;;;;;;;;;18.70;54.64;101496.06;5061413;28;20480;-79
2022/08/30 09:05:49;;;;;;;;;;;;;;;18.71;53.21;101492.53;5062376;28;19909;-79
2022/08/30 09:08:16;;;;;;;;;;;;;;;18.76;52.05;101492.31;5066851;28;19931;-79
2022/08/30 09:10:49;;;;;;;;;;;;;;;18.77;52.27;101492.25;5069001;28;20091;-79
2022/08/30 09:13:14;;;;;;;;;;;;;;;18.73;52.97;101488.03;5072079;28;19931;-79
2022/08/30 09:15:40;;;;;;;;;;;;;;;18.70;55.41;101486.41;5059783;28;19930;-79
2022/08/30 09:18:07;;;;;;;;;;;;;;;18.69;55.12;101479.41;5064097;28;19928;-79
2022/08/30 09:20:35;;;;;;;;;;;;;;;18.72;52.68;101481.06;5063000;28;19925;-79
2022/08/30 09:23:26;;;;;;;;;;;;;;;18.71;59.21;101484.63;5065980;28;20015;-79
2022/08/30 09:26:02;;;;;;;;;;;;;;;18.74;53.02;101481.00;5065230;28;19929;-79
2022/08/30 09:28:27;;;;;;;;;;;;;;;18.76;52.61;101472.13;5063485;28;20640;-79
2022/08/30 09:31:05;;;;;;;;;;;;;;;18.70;55.08;101475.88;5065878;28;19916;-79
2022/08/30 09:33:30;;;;;;;;;;;;;;;18.72;55.01;101478.44;5064870;28;20000;-79
2022/08/30 09:35:56;;;;;;;;;;;;;;;18.72;54.29;101472.34;5069820;28;20031;-79
2022/08/30 09:38:29;;;;;;;;;;;;;;;18.85;52.00;101463.81;5062882;28;19974;-80
2022/08/30 09:40:56;;;;;;;;;;;;;;;18.92;51.27;101462.63;5061047;28;19924;-79
2022/08/30 09:43:21;;;;;;;;;;;;;;;18.87;51.76;101456.69;5067808;28;19947;-79
2022/08/30 09:45:48;;;;;;;;;;;;;;;18.92;50.70;101461.78;5069250;28;19925;-79
2022/08/30 09:48:25;;;;;;;;;;;;;;;18.87;52.30;101464.59;5065171;28;19937;-79
2022/08/30 09:51:03;;;;;;;;;;;;;;;18.90;50.25;101461.81;5068540;28;19956;-79
2022/08/30 09:53:33;;;;;;;;;;;;;;;18.93;49.91;101455.56;5065476;28;19924;-79
2022/08/30 09:56:21;;;;;;;;;;;;;;;18.97;49.51;101452.75;5071162;28;19997;-79
2022/08/30 09:59:02;;;;;;;;;;;;;;;19.13;48.36;101450.28;5065145;28;20004;-79
2022/08/30 10:01:33;;;;;;;;;;;;;;;19.09;48.47;101448.69;5065824;28;19924;-79
2022/08/30 10:04:11;;;;;;;;;;;;;;;19.19;47.79;101450.00;5068018;28;19930;-79
2022/08/30 10:06:40;;;;;;;;;;;;;;;19.11;49.04;101449.47;5066025;28;19932;-79
2022/08/30 10:09:11;;;;;;;;;;;;;;;19.12;48.25;101452.06;5071521;28;20080;-80
2022/08/30 10:11:48;;;;;;;;;;;;;;;19.18;48.24;101445.66;5069514;28;20088;-80
2022/08/30 10:14:33;;;;;;;;;;;;;;;19.12;49.11;101446.78;5071439;28;19920;-80
2022/08/30 10:17:05;;;;;;;;;;;;;;;19.10;48.83;101434.63;5067133;28;19970;-79
2022/08/30 10:19:42;;;;;;;;;;;;;;;19.14;50.16;101441.44;5070452;28;19923;-79
2022/08/30 10:22:07;;;;;;;;;;;;;;;19.09;52.98;101438.16;5065313;28;19939;-80
2022/08/30 10:24:36;;;;;;;;;;;;;;;19.07;49.56;101433.00;5068917;28;19920;-79
2022/08/30 10:27:07;;;;;;;;;;;;;;;19.15;48.97;101432.63;5066570;28;19924;-79
2022/08/30 10:29:45;;;;;;;;;;;;;;;19.26;49.15;101428.56;5069515;28;20518;-79
2022/08/30 10:32:33;;;;;;;;;;;;;;;19.56;47.75;101426.28;5067311;28;19920;-79
2022/08/30 10:35:21;;;;;;;;;;;;;;;19.28;54.43;101425.00;5059099;28;19925;-79
2022/08/30 10:37:49;;;;;;;;;;;;;;;19.11;56.57;101428.41;5070012;28;19921;-79
2022/08/30 10:43:08;;;;;;;;;;;;;;;19.16;51.00;101424.63;5074852;28;20152;-79
2022/08/30 10:45:36;;;;;;;;;;;;;;;19.14;59.33;101433.53;5066024;28;19925;-79
2022/08/30 10:48:16;;;;;;;;;;;;;;;19.13;52.54;101414.25;5060951;28;19920;-79
2022/08/30 10:50:44;;;;;;;;;;;;;;;19.19;60.21;101421.84;5065006;28;20377;-80
2022/08/30 10:53:17;;;;;;;;;;;;;;;19.08;60.85;101429.41;5061283;28;19924;-79
2022/08/30 10:55:50;;;;;;;;;;;;;;;19.11;57.64;101424.00;5074238;28;19925;-79
2022/08/30 10:58:17;;;;;;;;;;;;;;;19.11;61.03;101424.00;5064750;28;19924;-79
2022/08/30 11:00:57;;;;;;;;;;;;;;;19.19;57.51;101421.84;5065887;28;19932;-79
2022/08/30 11:03:39;;;;;;;;;;;;;;;19.18;60.93;101422.81;5064862;28;19979;-79
2022/08/30 11:06:16;;;;;;;;;;;;;;;19.37;57.21;101419.34;5068527;28;19920;-79
2022/08/30 11:08:41;;;;;;;;;;;;;;;19.48;53.25;101414.41;5060694;28;19995;-79
2022/08/30 11:11:20;;;;;;;;;;;;;;;19.29;58.38;101416.19;5068732;28;20027;-79
2022/08/30 11:13:47;;;;;;;;;;;;;;;19.23;61.20;101419.94;5062335;28;20377;-79
2022/08/30 11:16:14;;;;;;;;;;;;;;;19.21;61.92;101414.75;5066943;28;20027;-79
2022/08/30 11:18:39;;;;;;;;;;;;;;;19.44;54.56;101410.22;5058583;28;19924;-79
2022/08/30 11:21:17;;;;;;;;;;;;;;;19.27;55.75;101403.09;5065616;28;19928;-79
2022/08/30 11:23:56;;;;;;;;;;;;;;;19.44;51.52;101404.94;5066336;28;20448;-79
2022/08/30 11:26:40;;;;;;;;;;;;;;;19.44;60.31;101402.31;5068434;28;19955;-79
2022/08/30 11:29:06;;;;;;;;;;;;;;;19.33;60.80;101400.19;5066943;28;19925;-79
2022/08/30 11:31:36;;;;;;;;;;;;;;;19.78;49.73;101391.84;5064817;28;20435;-79
2022/08/30 11:34:02;;;;;;;;;;;;;;;19.44;55.78;101399.66;5063061;28;19928;-79
2022/08/30 11:36:28;;;;;;;;;;;;;;;19.60;50.25;101390.13;5070327;28;20513;-79
2022/08/30 11:38:53;;;;;;;;;;;;;;;19.96;47.28;101390.09;5068547;28;20328;-79
2022/08/30 11:41:37;;;;;;;;;;;;;;;19.49;57.90;101401.16;5064837;28;20391;-79
2022/08/30 11:44:11;;;;;;;;;;;;;;;19.43;58.98;101400.63;5059246;28;20405;-80
2022/08/30 11:46:38;;;;;;;;;;;;;;;19.54;50.81;101385.13;5065899;28;19940;-80
2022/08/30 11:49:11;;;;;;;;;;;;;;;19.50;54.88;101388.84;5062073;28;19928;-79
2022/08/30 11:51:40;;;;;;;;;;;;;;;19.31;60.69;101382.75;5067665;28;19931;-79
2022/08/30 11:54:08;;;;;;;;;;;;;;;19.27;60.55;101387.28;5061232;28;19973;-80
2022/08/30 11:56:48;;;;;;;;;;;;;;;19.42;60.36;101378.69;5066982;28;20094;-79
2022/08/30 11:59:36;;;;;;;;;;;;;;;19.29;61.86;101372.28;5064927;28;19928;-79
2022/08/30 12:02:02;;;;;;;;;;;;;;;19.53;53.64;101371.09;5064127;28;19929;-79
2022/08/30 12:04:36;;;;;;;;;;;;;;;19.81;48.42;101357.44;5060035;28;19925;-80
2022/08/30 12:07:04;;;;;;;;;;;;;;;19.70;49.18;101360.59;5065239;28;19924;-80
2022/08/30 12:09:29;;;;;;;;;;;;;;;19.58;55.74;101373.53;5066377;28;19943;-80
2022/08/30 12:12:08;;;;;;;;;;;;;;;20.01;45.33;101359.91;5064057;28;20323;-79
2022/08/30 12:14:38;;;;;;;;;;;;;;;20.41;43.76;101361.41;5068446;28;20498;-79
2022/08/30 12:20:03;;;;;;;;;;;;;;;19.97;46.68;101357.50;5060637;28;20619;-80
2022/08/30 12:22:30;;;;;;;;;;;;;;;19.77;54.43;101364.63;5067125;28;19920;-80
2022/08/30 12:24:55;;;;;;;;;;;;;;;19.57;54.29;101356.84;5067020;28;19925;-80
2022/08/30 12:27:20;;;;;;;;;;;;;;;19.52;59.09;101369.38;5062393;28;19939;-80
2022/08/30 12:29:58;;;;;;;;;;;;;;;19.63;53.77;101359.19;5061413;28;19940;-79
2022/08/30 12:32:24;;;;;;;;;;;;;;;19.55;58.00;101357.88;5065374;28;19922;-80
2022/08/30 12:34:56;;;;;;;;;;;;;;;19.54;55.04;101345.59;5063252;28;19917;-80
2022/08/30 12:37:28;;;;;;;;;;;;;;;19.84;47.18;101344.09;5063931;28;20031;-79
2022/08/30 12:40:19;;;;;;;;;;;;;;;19.59;54.65;101346.22;5063032;28;20019;-80
2022/08/30 12:42:50;;;;;;;;;;;;;;;19.60;56.92;101347.94;5064711;28;20011;-80
2022/08/30 12:45:17;;;;;;;;;;;;;;;19.51;58.33;101348.41;5068328;28;19920;-80
2022/08/30 12:47:55;;;;;;;;;;;;;;;19.67;54.12;101341.41;5062323;28;19916;-80